LiveATC.Net - Listen to live air traffic control over the Internet!


ICAO: CYYB  IATA: YYB   Airport: North Bay Airport
City: North Bay   State/Province: Ontario
Country: Canada   Continent: North America
CYYB METAR Weather: CYYB 191900Z VRB05KT 30SM SCT030 BKN100 20/15 A2979 RMK CU3AC4 SLP092 DENSITY ALT 2300FT
CYYB Flight Activity (FlightAware)

CYYB RDO/CTAF (Air Race Classic)
Feed Status: UP   Listeners: 0
Listen in your browser - HTML5 player (in browser, HTML5)
Click here to listen with your own player (launches your MP3 player)
CYYB RDO/CTAF (Air Race Classic) Audio Archives
FacilityFrequency
North Bay RDO/CTAF118.300

NOTICE

Unauthorized use prohibited. See LiveATC.net Terms of Service


Find LiveATC Audio Streams


Airport/ARTCC Code

Frequency Search
(e.g., 124.400, 128.75)
Site-wide search
 


Browse LiveATC Feeds
Top 50 LiveATC Feeds
LiveATC Feed Map
Bad Weather Areas

LiveATC FAQ
Offer LiveATC feed
Contact LiveATC.net
Press Inquiries

LiveATC on iPhone
LiveATC on Android

Windows Phone
Windows 8/10

LiveATC Mobile
(Mobile browser)

ATC Audio Archives
Interesting Recordings

LiveATC Forums


Home Page
About LiveATC.net
Make a Donation
Terms of Use
Privacy Policy

Canadian Air Freqs

AIRMETs/SIGMETs

FAA Airport Status
Nat'l Airspace Status
Arrival Demand Charts


Server Software By:
Icecast.org
Liquidsoap